Ajo, Arizona
Current Conditions -  °F | °C
As of 4:56 PM on Friday 19 Dec 2014 (Local Time) from KGXF Reporting Station
Few Clouds Few Clouds  
Wind Chill: 62°   Ceiling: Unl
Heat Index: 62°   Visibility: 10mi
Dew Point: 40°   Wind: 6mph
Humidity: 44%   Direction: 10°N
Pressure: 30.14"   Gusts: NA
Location:  32.37°N, 112.86°W
Report Text: KGXF 192356Z 01005KT 10SM FEW250 17/05 A3014 RMK AO2A SLP199 T01670044 10183 20133 57005
Loading
Personal Weather Stations






























Interactive Weather Map New forecast layout! Learn more

10-Day Weather Forecast

Advertisements
Track Severe Weather on mobile